KSSF/SSF METAR and TAF weather

Enter ICAO airport designator
Station Type Date Time Source
KSSF METAR 2019/06/18 15:03 UTC NOAA

KSSF 181503Z 00000KT 10SM SCT014 28/21 A2996 RMK AO2 T02780206


Station Type Date Time Source
KSSF Decoded METAR 2019/06/18 15:03 UTC NOAA

SAN ANTONIO STINSON MUNI, TX, United States (KSSF) 29-20N 098-28W 176M
Jun 18, 2019 - 11:03 AM EDT / 2019.06.18 1503 UTC
Wind: Calm:0
Visibility: 10 mile(s):0
Sky conditions: partly cloudy
Temperature: 82.0 F (27.8 C)
Dew Point: 69.1 F (20.6 C)
Relative Humidity: 64%
Pressure (altimeter): 29.96 in. Hg (1014 hPa)
ob: KSSF 181503Z 00000KT 10SM SCT014 28/21 A2996 RMK AO2 T02780206
cycle: 15

Station Type Date Time Source
KSSF TAF 2019/06/18 14:54 UTC NOAA

TAF
AMD KSSF 181350Z 1814/1912 13005KT P6SM OVC010
FM181500 13005KT P6SM OVC020
FM181600 14005KT P6SM SCT050
FM190800 15005KT P6SM OVC015

Example: see airport list